Time;durP1;ratioP1;P1;durP2;ratioP2;P2;SDS_P1;SDS_P2;PMS_P1;PMS_P2;Temp;Humidity;BMP_temperature;BMP_pressure;BME280_temperature;BME280_humidity;BME280_pressure;Samples;Min_cycle;Max_cycle;Signal;HPM_P1;HPM_P2
2023/06/05 00:02:04;;;;;;;6.22;3.08;;;;;;;-142.75;100.00;77662.94;5051025;28;20067;-68
2023/06/05 00:04:29;;;;;;;5.65;2.88;;;;;;;-142.75;100.00;77649.16;5036636;28;20090;-68
2023/06/05 00:06:56;;;;;;;5.75;3.45;;;;;;;-142.75;100.00;77659.00;5039285;28;20033;-66
2023/06/05 00:09:22;;;;;;;9.63;3.30;;;;;;;-142.75;100.00;77662.94;5052212;28;20548;-67
2023/06/05 00:11:47;;;;;;;7.13;3.00;;;;;;;-142.75;100.00;77676.72;5051214;28;20021;-65
2023/06/05 00:14:12;;;;;;;8.25;3.33;;;;;;;-142.75;100.00;77678.69;5052061;28;20042;-65
2023/06/05 00:16:38;;;;;;;6.20;3.28;;;;;;;-142.75;100.00;77684.59;5051844;28;20032;-64
2023/06/05 00:19:04;;;;;;;6.55;3.33;;;;;;;-142.75;100.00;77674.75;5052236;28;20099;-64
2023/06/05 00:21:30;;;;;;;6.97;3.63;;;;;;;-142.75;100.00;77668.84;5055867;28;20612;-65
2023/06/05 00:23:55;;;;;;;7.53;3.75;;;;;;;-142.75;100.00;77684.59;5051797;28;20102;-65
2023/06/05 00:26:21;;;;;;;6.07;2.97;;;;;;;-142.75;100.00;77692.47;5052052;28;20108;-65
2023/06/05 00:28:47;;;;;;;6.30;3.20;;;;;;;-142.75;100.00;77704.28;5051784;28;20398;-65
2023/06/05 00:31:17;;;;;;;5.70;3.65;;;;;;;-142.75;100.00;77694.44;5051566;28;20052;-65
2023/06/05 00:33:42;;;;;;;8.32;3.65;;;;;;;-142.75;100.00;77698.38;5049169;28;20516;-65
2023/06/05 00:36:07;;;;;;;5.35;3.33;;;;;;;-142.75;100.00;77692.47;5031802;28;20037;-65
2023/06/05 00:38:33;;;;;;;6.43;3.35;;;;;;;-142.75;100.00;77694.44;5031836;28;20032;-65
2023/06/05 00:41:00;;;;;;;9.57;3.78;;;;;;;-142.75;100.00;77704.28;5031486;28;20036;-65
2023/06/05 00:43:26;;;;;;;6.50;3.90;;;;;;;-142.75;100.00;77712.16;5031597;28;20048;-64
2023/06/05 00:45:58;;;;;;;9.10;3.30;;;;;;;-142.75;100.00;77700.34;5033175;28;20118;-65
2023/06/05 00:48:23;;;;;;;9.43;3.50;;;;;;;-142.75;100.00;77708.22;5047425;28;20505;-65
2023/06/05 00:50:50;;;;;;;5.88;3.92;;;;;;;-142.75;100.00;77700.34;5031968;28;20037;-65
2023/06/05 00:53:15;;;;;;;8.30;3.65;;;;;;;-142.75;100.00;77710.19;5032039;28;20025;-65
2023/06/05 00:55:41;;;;;;;10.52;4.07;;;;;;;-142.75;100.00;77710.19;5029803;28;20033;-65
2023/06/05 00:58:07;;;;;;;6.13;3.92;;;;;;;-142.75;100.00;77710.19;5028643;28;20025;-65
2023/06/05 01:00:33;;;;;;;11.18;4.88;;;;;;;-142.75;100.00;77712.16;5029179;28;20493;-65
2023/06/05 01:02:59;;;;;;;6.72;3.75;;;;;;;-142.75;100.00;77722.00;5063308;28;20398;-64
2023/06/05 01:05:26;;;;;;;8.45;4.20;;;;;;;-142.75;100.00;77731.88;5034535;28;20029;-64
2023/06/05 01:07:53;;;;;;;7.85;4.05;;;;;;;-142.75;100.00;77720.03;5048589;28;20397;-65
2023/06/05 01:10:18;;;;;;;5.53;3.67;;;;;;;-142.75;100.00;77731.88;5032289;28;20033;-66
2023/06/05 01:12:57;;;;;;;8.15;3.85;;;;;;;-142.75;100.00;77720.03;5040649;28;20029;-65
2023/06/05 01:15:28;;;;;;;8.82;3.78;;;;;;;-142.75;100.00;77722.00;5035221;28;20032;-65
2023/06/05 01:17:58;;;;;;;8.43;4.35;;;;;;;-142.75;100.00;77710.19;5028054;28;20033;-64
2023/06/05 01:20:31;;;;;;;7.22;3.50;;;;;;;-142.75;100.00;77708.22;5031558;28;20083;-64
2023/06/05 01:22:57;;;;;;;11.00;4.50;;;;;;;-142.75;100.00;77727.94;5048027;28;20045;-64
2023/06/05 01:25:22;;;;;;;6.60;3.25;;;;;;;-142.75;100.00;77712.16;5048147;28;20083;-65
2023/06/05 01:27:58;;;;;;;6.35;3.90;;;;;;;-142.75;100.00;77731.88;5034077;28;20411;-65
2023/06/05 01:30:31;;;;;;;5.57;3.95;;;;;;;-142.75;100.00;77723.97;5043473;28;20379;-65
2023/06/05 01:33:02;;;;;;;8.35;4.30;;;;;;;-142.75;100.00;77722.00;5031282;28;20029;-64
2023/06/05 01:35:32;;;;;;;7.35;4.30;;;;;;;-142.75;100.00;77743.69;5047477;28;20025;-64
2023/06/05 01:38:05;;;;;;;9.38;3.88;;;;;;;-142.75;100.00;77735.81;5029362;28;20108;-65
2023/06/05 01:40:33;;;;;;;6.18;3.80;;;;;;;-142.75;100.00;77739.75;5043201;28;20032;-65
2023/06/05 01:43:00;;;;;;;10.75;3.80;;;;;;;-142.75;100.00;77708.22;5047796;28;20032;-64
2023/06/05 01:45:26;;;;;;;6.57;4.35;;;;;;;-142.75;100.00;77716.09;5062918;28;20500;-65
2023/06/05 01:47:51;;;;;;;8.02;3.83;;;;;;;-142.75;100.00;77718.06;5042533;28;20036;-65
2023/06/05 01:50:17;;;;;;;7.55;3.83;;;;;;;-142.75;100.00;77712.16;5039155;28;20021;-64
2023/06/05 01:52:46;;;;;;;7.60;4.30;;;;;;;-142.75;100.00;77720.03;5047292;28;20024;-65
2023/06/05 01:55:16;;;;;;;9.00;4.28;;;;;;;-142.75;100.00;77723.97;5047051;28;20016;-65
2023/06/05 01:57:42;;;;;;;11.63;5.28;;;;;;;-142.75;100.00;77720.03;5046138;28;20033;-65
2023/06/05 02:00:15;;;;;;;7.57;4.70;;;;;;;-142.75;100.00;77716.09;5046773;28;20040;-65
2023/06/05 02:02:45;;;;;;;8.15;4.43;;;;;;;-142.75;100.00;77716.09;5046887;28;20070;-65
2023/06/05 02:05:12;;;;;;;8.32;4.13;;;;;;;-142.75;100.00;77712.16;5047074;28;20013;-65
2023/06/05 02:07:49;;;;;;;7.82;4.22;;;;;;;-142.75;100.00;77708.22;5046706;28;20025;-65
2023/06/05 02:10:15;;;;;;;11.13;4.60;;;;;;;-142.75;100.00;77706.25;5046316;28;20029;-63
2023/06/05 02:12:42;;;;;;;7.53;4.35;;;;;;;-142.75;100.00;77708.22;5042559;28;20028;-65
2023/06/05 02:15:12;;;;;;;11.60;3.97;;;;;;;-142.75;100.00;77704.28;5027203;28;20028;-65
2023/06/05 02:17:38;;;;;;;6.45;3.75;;;;;;;-142.75;100.00;77704.28;5027153;28;20030;-65
2023/06/05 02:20:04;;;;;;;6.72;4.55;;;;;;;-142.75;100.00;77704.28;5026942;28;20052;-65
2023/06/05 02:22:30;;;;;;;7.32;4.80;;;;;;;-142.75;100.00;77708.22;5033325;28;20454;-65
2023/06/05 02:24:55;;;;;;;13.23;4.55;;;;;;;-142.75;100.00;77720.03;5032497;28;20028;-63
2023/06/05 02:27:24;;;;;;;7.50;4.25;;;;;;;-142.75;100.00;77731.88;5047023;28;20020;-65
2023/06/05 02:29:50;;;;;;;10.45;4.43;;;;;;;-142.75;100.00;77727.94;5046638;28;20021;-64
2023/06/05 02:32:15;;;;;;;10.35;4.32;;;;;;;-142.75;100.00;77718.06;5046433;28;20021;-65
2023/06/05 02:34:40;;;;;;;9.27;4.38;;;;;;;-142.75;100.00;77718.06;5035640;28;20039;-64
2023/06/05 02:37:06;;;;;;;8.90;4.80;;;;;;;-142.75;100.00;77712.16;5026670;28;20029;-65
2023/06/05 02:39:33;;;;;;;8.80;4.55;;;;;;;-142.75;100.00;77729.88;5026720;28;20030;-65
2023/06/05 02:41:58;;;;;;;8.05;4.05;;;;;;;-142.75;100.00;77727.94;5026202;28;20548;-65
2023/06/05 02:44:23;;;;;;;7.82;4.85;;;;;;;-142.75;100.00;77710.19;5026643;28;20025;-65
2023/06/05 02:46:49;;;;;;;10.30;4.03;;;;;;;-142.75;100.00;77710.19;5026874;28;20080;-65
2023/06/05 02:49:14;;;;;;;9.30;4.70;;;;;;;-142.75;100.00;77727.94;5049989;23;20052;-61
2023/06/05 02:51:39;;;;;;;7.60;4.68;;;;;;;-142.75;100.00;77723.97;5023131;28;20052;-66
2023/06/05 02:54:05;;;;;;;10.32;4.20;;;;;;;-142.75;100.00;77720.03;5024442;28;20446;-65
2023/06/05 02:56:30;;;;;;;8.82;4.43;;;;;;;-142.75;100.00;77718.06;5024768;28;20021;-64
2023/06/05 02:58:56;;;;;;;8.38;4.28;;;;;;;-142.75;100.00;77725.97;5024336;28;20095;-64
2023/06/05 03:01:22;;;;;;;8.50;3.95;;;;;;;-142.75;100.00;77725.97;5006539;28;20018;-65
2023/06/05 03:03:48;;;;;;;9.32;4.22;;;;;;;-142.75;100.00;77737.78;5004965;28;20022;-64
2023/06/05 03:06:17;;;;;;;8.15;4.45;;;;;;;-142.75;100.00;77727.94;5006457;28;20753;-65
2023/06/05 03:08:43;;;;;;;11.82;4.45;;;;;;;-142.75;100.00;77731.88;5006197;28;20024;-65
2023/06/05 03:11:08;;;;;;;10.80;4.38;;;;;;;-142.75;100.00;77725.97;5006004;28;20022;-65
2023/06/05 03:13:33;;;;;;;10.70;4.13;;;;;;;-142.75;100.00;77720.03;5006420;28;20060;-65
2023/06/05 03:16:02;;;;;;;8.40;4.57;;;;;;;-142.75;100.00;77716.09;5006347;28;20021;-65
2023/06/05 03:18:28;;;;;;;7.88;4.43;;;;;;;-142.75;100.00;77723.97;5005978;28;20034;-65
2023/06/05 03:20:57;;;;;;;7.95;4.45;;;;;;;-142.75;100.00;77716.09;5006241;28;20036;-65
2023/06/05 03:23:24;;;;;;;8.57;4.43;;;;;;;-142.75;100.00;77710.19;5006480;28;20570;-63
2023/06/05 03:25:53;;;;;;;8.63;4.85;;;;;;;-142.75;100.00;77725.97;5006695;28;20407;-65
2023/06/05 03:28:19;;;;;;;8.13;4.72;;;;;;;-142.75;100.00;77712.16;5005849;28;20076;-66
2023/06/05 03:30:45;;;;;;;9.88;4.15;;;;;;;-142.75;100.00;77723.97;5005511;28;20026;-65
2023/06/05 03:33:10;;;;;;;7.13;4.40;;;;;;;-142.75;100.00;77720.03;5005930;28;20056;-65
2023/06/05 03:35:36;;;;;;;6.45;4.32;;;;;;;-142.75;100.00;77716.09;5006192;28;20612;-65
2023/06/05 03:38:02;;;;;;;9.57;5.05;;;;;;;-142.75;100.00;77720.03;5005895;28;20510;-65
2023/06/05 03:40:28;;;;;;;10.30;5.05;;;;;;;-142.75;100.00;77716.09;5005382;28;20418;-63
2023/06/05 03:42:53;;;;;;;8.75;4.00;;;;;;;-142.75;100.00;77716.09;5006147;28;20030;-64
2023/06/05 03:45:19;;;;;;;7.85;4.55;;;;;;;-142.75;100.00;77712.16;5006001;28;20081;-64
2023/06/05 03:47:48;;;;;;;11.05;4.72;;;;;;;-142.75;100.00;77725.97;5005905;28;20018;-64
2023/06/05 03:50:13;;;;;;;8.02;4.47;;;;;;;-142.75;100.00;77725.97;5005978;28;20112;-65
2023/06/05 03:52:39;;;;;;;7.18;4.30;;;;;;;-142.75;100.00;77720.03;5005808;28;20105;-65
2023/06/05 03:55:07;;;;;;;10.07;4.93;;;;;;;-142.75;100.00;77722.00;5006132;28;20030;-65
2023/06/05 03:57:33;;;;;;;9.60;4.15;;;;;;;-142.75;100.00;77735.81;5005941;28;20022;-64
2023/06/05 03:59:58;;;;;;;9.07;4.60;;;;;;;-142.75;100.00;77723.97;5005465;28;20506;-65
2023/06/05 04:02:24;;;;;;;9.65;5.30;;;;;;;-142.75;100.00;77722.00;5005746;28;20037;-65
2023/06/05 04:04:50;;;;;;;10.75;4.30;;;;;;;-142.75;100.00;77727.94;5006112;28;20049;-65
2023/06/05 04:07:16;;;;;;;6.50;4.45;;;;;;;-142.75;100.00;77720.03;5005884;28;20046;-65
2023/06/05 04:09:41;;;;;;;8.05;4.63;;;;;;;-142.75;100.00;77718.06;5005457;28;20065;-64
2023/06/05 04:12:07;;;;;;;7.88;4.55;;;;;;;-142.75;100.00;77727.94;5005340;28;20026;-63
2023/06/05 04:14:33;;;;;;;7.70;4.40;;;;;;;-142.75;100.00;77727.94;5005674;28;20026;-63
2023/06/05 04:16:59;;;;;;;9.70;4.47;;;;;;;-142.75;100.00;77727.94;5005540;28;20072;-63
2023/06/05 04:19:25;;;;;;;9.88;4.97;;;;;;;-142.75;100.00;77722.00;5006121;28;20037;-61
2023/06/05 04:21:51;;;;;;;9.23;5.07;;;;;;;-142.75;100.00;77716.09;5005490;28;20018;-63
2023/06/05 04:24:16;;;;;;;9.15;4.88;;;;;;;-142.75;100.00;77720.03;5005600;28;20725;-63
2023/06/05 04:26:41;;;;;;;9.18;4.75;;;;;;;-142.75;100.00;77714.13;5005721;28;20033;-63
2023/06/05 04:29:13;;;;;;;9.23;4.32;;;;;;;-142.75;100.00;77698.38;5005397;28;20030;-63
2023/06/05 04:31:48;;;;;;;11.13;4.63;;;;;;;-142.75;100.00;77694.44;5006629;28;20095;-62
2023/06/05 04:34:13;;;;;;;7.50;4.90;;;;;;;-142.75;100.00;77694.44;5009420;28;20117;-63
2023/06/05 04:36:40;;;;;;;9.73;5.05;;;;;;;-142.75;100.00;77692.47;5009244;28;20026;-63
2023/06/05 04:39:13;;;;;;;9.82;5.05;;;;;;;-142.75;100.00;77696.41;5008487;28;20025;-63
2023/06/05 04:41:44;;;;;;;7.88;4.32;;;;;;;-142.75;100.00;77676.72;5007213;28;20022;-62
2023/06/05 04:44:13;;;;;;;9.85;4.43;;;;;;;-142.75;100.00;77686.56;5008851;28;20030;-62
2023/06/05 04:46:39;;;;;;;10.10;4.88;;;;;;;-142.75;100.00;77696.41;5009165;28;20153;-65
2023/06/05 04:49:06;;;;;;;8.55;4.63;;;;;;;-142.75;100.00;77676.72;5008855;28;20533;-66
2023/06/05 04:51:33;;;;;;;9.52;4.85;;;;;;;-142.75;100.00;77668.84;5008602;28;20022;-66
2023/06/05 04:53:59;;;;;;;8.23;4.80;;;;;;;-142.75;100.00;77657.03;5008630;28;20053;-65
2023/06/05 04:56:25;;;;;;;8.55;4.85;;;;;;;-142.75;100.00;77659.00;5008793;28;20026;-64
2023/06/05 04:58:52;;;;;;;7.53;4.35;;;;;;;-142.75;100.00;77649.16;5008931;28;20652;-65
2023/06/05 05:01:17;;;;;;;7.30;4.28;;;;;;;-142.75;100.00;77653.09;5008747;28;20059;-65
2023/06/05 05:03:44;;;;;;;9.50;4.57;;;;;;;-142.75;100.00;77659.00;5008936;28;21421;-66
2023/06/05 05:06:10;;;;;;;10.48;4.72;;;;;;;-142.75;100.00;77649.16;5008711;28;20502;-65
2023/06/05 05:08:36;;;;;;;6.45;3.65;;;;;;;-142.75;100.00;77651.13;5006988;28;20057;-65
2023/06/05 05:11:01;;;;;;;6.15;3.83;;;;;;;-142.75;100.00;77637.34;5006762;28;20042;-65
2023/06/05 05:13:26;;;;;;;5.95;3.97;;;;;;;-142.75;100.00;77645.22;5008555;28;20057;-64
2023/06/05 05:15:52;;;;;;;8.63;3.58;;;;;;;-142.75;100.00;77629.47;5021508;28;20084;-65
2023/06/05 05:18:18;;;;;;;6.95;4.10;;;;;;;-142.75;100.00;77609.78;5008105;28;20018;-65
2023/06/05 05:20:43;;;;;;;6.82;3.85;;;;;;;-142.75;100.00;77599.94;5008488;28;20288;-65
2023/06/05 05:23:09;;;;;;;8.60;4.32;;;;;;;-142.75;100.00;77592.06;5008706;28;20109;-64
2023/06/05 05:25:37;;;;;;;7.95;3.83;;;;;;;-142.75;100.00;77590.09;5008437;28;20021;-65
2023/06/05 05:28:02;;;;;;;6.18;3.95;;;;;;;-142.75;100.00;77601.91;5008165;28;20034;-64
2023/06/05 05:30:29;;;;;;;5.70;3.70;;;;;;;-142.75;100.00;77592.06;5007956;28;20032;-64
2023/06/05 05:32:55;;;;;;;7.90;3.65;;;;;;;-142.75;100.00;77597.97;5008025;28;20724;-63
2023/06/05 05:35:20;;;;;;;5.53;3.35;;;;;;;-142.75;100.00;77615.69;5008328;28;20026;-65
2023/06/05 05:37:45;;;;;;;7.78;3.95;;;;;;;-142.75;100.00;77597.97;5008071;28;20025;-62
2023/06/05 05:40:11;;;;;;;5.55;3.45;;;;;;;-142.75;100.00;77592.06;5007882;28;20028;-65
2023/06/05 05:42:37;;;;;;;7.07;3.45;;;;;;;-142.75;100.00;77599.94;5007256;28;20112;-65
2023/06/05 05:45:02;;;;;;;7.28;3.72;;;;;;;-142.75;100.00;77564.50;5007880;28;20109;-64
2023/06/05 05:47:28;;;;;;;7.13;4.25;;;;;;;-142.75;100.00;77556.63;5008128;28;20026;-65
2023/06/05 05:49:53;;;;;;;10.65;4.43;;;;;;;-142.75;100.00;77536.94;5008042;28;20121;-65
2023/06/05 05:52:20;;;;;;;12.52;4.43;;;;;;;-142.75;100.00;77511.34;5007421;28;20479;-65
2023/06/05 05:54:45;;;;;;;8.65;4.10;;;;;;;-142.75;100.00;77501.50;5007500;28;20521;-64
2023/06/05 05:57:11;;;;;;;8.10;4.80;;;;;;;-142.75;100.00;77485.75;5007850;28;20025;-65
2023/06/05 05:59:36;;;;;;;10.18;4.80;;;;;;;-142.75;100.00;77483.78;5007689;28;20033;-65
2023/06/05 06:02:08;;;;;;;8.63;4.18;;;;;;;-142.75;100.00;77468.03;5007044;28;20101;-64
2023/06/05 06:04:34;;;;;;;9.43;3.90;;;;;;;-142.75;100.00;77470.00;5007200;28;20084;-65
2023/06/05 06:07:00;;;;;;;8.57;4.18;;;;;;;-142.75;100.00;77462.13;5007415;28;20026;-65
2023/06/05 06:09:26;;;;;;;9.43;4.35;;;;;;;-142.75;100.00;77436.50;5007389;28;20026;-65
2023/06/05 06:11:55;;;;;;;10.57;4.05;;;;;;;-142.75;100.00;77462.13;5021631;28;20018;-64
2023/06/05 06:14:21;;;;;;;9.55;4.10;;;;;;;-142.75;100.00;77454.25;5006902;28;20048;-66
2023/06/05 06:16:47;;;;;;;7.10;3.97;;;;;;;-142.75;100.00;77452.25;5006395;28;20084;-64
2023/06/05 06:19:14;;;;;;;9.13;4.38;;;;;;;-142.75;100.00;77442.41;5006852;28;20029;-66
2023/06/05 06:21:40;;;;;;;8.13;3.92;;;;;;;-142.75;100.00;77444.38;5006454;28;20114;-65
2023/06/05 06:24:05;;;;;;;7.60;4.22;;;;;;;-142.75;100.00;77448.34;5006307;28;20076;-62
2023/06/05 06:26:31;;;;;;;12.05;4.28;;;;;;;-142.75;100.00;77460.13;5006587;28;20022;-63
2023/06/05 06:28:57;;;;;;;6.28;4.18;;;;;;;-142.75;100.00;77430.59;5021468;28;20088;-63
2023/06/05 06:31:23;;;;;;;7.03;4.45;;;;;;;-142.75;100.00;77401.06;5006347;28;20033;-63
2023/06/05 06:33:48;;;;;;;7.30;4.43;;;;;;;-142.75;100.00;77391.22;5006332;28;20388;-63
2023/06/05 06:36:13;;;;;;;7.75;4.30;;;;;;;-142.75;100.00;77389.25;5006321;28;20032;-63
2023/06/05 06:38:38;;;;;;;9.00;4.22;;;;;;;-142.75;100.00;77357.75;5006472;28;20623;-63
2023/06/05 06:41:04;;;;;;;8.95;4.88;;;;;;;-142.75;100.00;77338.06;5005909;28;20068;-63
2023/06/05 06:43:29;;;;;;;8.25;4.50;;;;;;;-142.75;100.00;77322.31;5006385;28;20541;-63
2023/06/05 06:45:55;;;;;;;15.90;4.53;;;;;;;-142.75;100.00;77304.59;5006418;28;20037;-63
2023/06/05 06:48:20;;;;;;;8.95;4.20;;;;;;;-142.75;100.00;77316.41;5004926;28;20029;-63
2023/06/05 06:50:46;;;;;;;8.25;4.10;;;;;;;-142.75;100.00;77310.50;5005662;28;20022;-62
2023/06/05 06:53:12;;;;;;;7.53;3.92;;;;;;;-142.75;100.00;77308.53;5005934;28;20141;-64
2023/06/05 06:55:37;;;;;;;8.38;4.43;;;;;;;-142.75;100.00;77314.44;5006885;28;20036;-63
2023/06/05 06:58:04;;;;;;;5.68;3.80;;;;;;;-142.75;100.00;77282.94;5006326;28;21915;-63
2023/06/05 07:00:30;;;;;;;8.50;3.63;;;;;;;-142.75;100.00;77271.13;5004359;28;20037;-63
2023/06/05 07:02:56;;;;;;;8.40;4.20;;;;;;;-142.75;100.00;77245.53;5005900;28;20030;-61
2023/06/05 07:05:22;;;;;;;6.93;3.65;;;;;;;-142.75;100.00;77231.75;5006049;28;20028;-63
2023/06/05 07:07:47;;;;;;;5.65;3.42;;;;;;;-142.75;100.00;77221.91;5005881;28;20095;-63
2023/06/05 07:10:13;;;;;;;5.32;3.50;;;;;;;-142.75;100.00;77206.16;5006180;28;20490;-63
2023/06/05 07:12:38;;;;;;;6.32;3.92;;;;;;;-142.75;100.00;77212.06;5006293;28;20068;-65
2023/06/05 07:15:04;;;;;;;6.97;3.72;;;;;;;-142.75;100.00;77186.47;5005497;28;20060;-64
2023/06/05 07:17:30;;;;;;;5.57;3.05;;;;;;;-142.75;100.00;77182.53;5006343;28;20026;-63
2023/06/05 07:19:56;;;;;;;9.43;3.92;;;;;;;-142.75;100.00;77168.75;5005432;28;20034;-61
2023/06/05 07:22:24;;;;;;;7.82;3.28;;;;;;;-142.75;100.00;77160.88;5005034;28;20113;-61
2023/06/05 07:24:50;;;;;;;9.15;3.78;;;;;;;-142.75;100.00;77137.25;5020034;28;20026;-64
2023/06/05 07:27:16;;;;;;;6.50;2.80;;;;;;;-142.75;100.00;77115.59;5006155;28;20112;-62
2023/06/05 07:29:41;;;;;;;6.75;3.33;;;;;;;-142.75;100.00;77135.28;5006037;28;20056;-63
2023/06/05 07:32:07;;;;;;;9.23;3.40;;;;;;;-142.75;100.00;77125.44;5004722;28;20029;-64
2023/06/05 07:34:33;;;;;;;9.05;3.13;;;;;;;-142.75;100.00;77097.88;5005362;28;20683;-64
2023/06/05 07:37:00;;;;;;;5.57;3.38;;;;;;;-142.75;100.00;77084.09;5020195;28;20519;-64
2023/06/05 07:39:25;;;;;;;6.57;3.20;;;;;;;-142.75;100.00;77082.13;5005472;28;20045;-62
2023/06/05 07:41:51;;;;;;;5.05;2.88;;;;;;;-142.75;100.00;77056.53;5005778;28;20538;-63
2023/06/05 07:44:19;;;;;;;9.32;3.78;;;;;;;-142.75;100.00;77062.44;5005621;28;20044;-63
2023/06/05 07:46:46;;;;;;;9.65;3.22;;;;;;;-142.75;100.00;77072.28;5005950;28;20037;-64
2023/06/05 07:49:12;;;;;;;8.27;3.25;;;;;;;-142.75;100.00;77027.00;5004947;28;20514;-64
2023/06/05 07:51:37;;;;;;;4.93;2.78;;;;;;;-142.75;100.00;77015.19;5004780;28;20034;-63
2023/06/05 07:54:05;;;;;;;6.18;2.90;;;;;;;-142.75;100.00;77023.06;5005913;28;20458;-63
2023/06/05 07:56:31;;;;;;;4.47;2.60;;;;;;;-142.75;100.00;77021.09;5005224;28;20080;-63
2023/06/05 07:58:56;;;;;;;6.43;2.85;;;;;;;-142.75;100.00;77015.19;5005061;28;20049;-61
2023/06/05 08:01:22;;;;;;;4.97;2.88;;;;;;;-142.75;100.00;77001.41;5005024;28;20041;-64
2023/06/05 08:03:47;;;;;;;6.00;3.30;;;;;;;-142.75;100.00;76983.69;5004867;28;20534;-63
2023/06/05 08:06:13;;;;;;;5.28;3.25;;;;;;;-142.75;100.00;76967.94;5007794;28;20037;-62
2023/06/05 08:08:38;;;;;;;4.85;3.08;;;;;;;-142.75;100.00;76954.16;5009266;28;20017;-62
2023/06/05 08:11:03;;;;;;;5.75;3.13;;;;;;;-142.75;100.00;76948.25;5008342;28;20033;-62
2023/06/05 08:13:29;;;;;;;5.82;2.65;;;;;;;-142.75;100.00;76916.75;5009350;28;20067;-63
2023/06/05 08:15:55;;;;;;;3.92;2.63;;;;;;;-142.75;100.00;76912.81;5008649;28;20033;-62
2023/06/05 08:18:21;;;;;;;4.88;2.92;;;;;;;-142.75;100.00;76930.53;5008621;28;20022;-63
2023/06/05 08:20:46;;;;;;;5.18;2.65;;;;;;;-142.75;100.00;76936.44;5008567;28;20523;-63
2023/06/05 08:23:13;;;;;;;7.40;2.47;;;;;;;-142.75;100.00;76936.44;5009515;28;20471;-63
2023/06/05 08:25:38;;;;;;;23.52;4.18;;;;;;;-142.75;100.00;76912.81;5010107;28;20080;-60
2023/06/05 08:28:04;;;;;;;4.50;2.28;;;;;;;-142.75;100.00;76877.38;5010133;28;20674;-60
2023/06/05 08:30:29;;;;;;;8.30;2.45;;;;;;;-142.75;100.00;76867.53;5009696;28;20033;-60
2023/06/05 08:32:54;;;;;;;4.07;1.90;;;;;;;-142.75;100.00;76849.81;5009984;28;20120;-60
2023/06/05 08:35:19;;;;;;;6.63;2.58;;;;;;;-142.75;100.00;76849.81;5025052;28;20028;-61
2023/06/05 08:37:45;;;;;;;3.22;2.00;;;;;;;-142.75;100.00;76820.28;5010014;28;20055;-61
2023/06/05 08:40:12;;;;;;;3.53;2.28;;;;;;;-142.75;100.00;76816.34;5008298;28;20042;-61
2023/06/05 08:42:38;;;;;;;4.65;2.08;;;;;;;-142.75;100.00;76845.88;5023462;28;20029;-59
2023/06/05 08:45:08;;;;;;;5.05;2.08;;;;;;;-142.75;100.00;76802.56;5009737;28;20044;-59
2023/06/05 08:47:37;;;;;;;3.25;1.90;;;;;;;-142.75;100.00;76796.69;5009284;28;20033;-59
2023/06/05 08:50:04;;;;;;;4.13;2.28;;;;;;;-142.75;100.00;76777.00;5036133;22;20141;-65
2023/06/05 08:52:34;;;;;;;5.93;2.58;;;;;;;-142.75;100.00;76759.28;5063403;28;20166;-66
2023/06/05 08:55:00;;;;;;;6.90;2.60;;;;;;;-142.75;100.00;76747.47;5066450;28;20029;-66
2023/06/05 08:57:27;;;;;;;4.15;2.28;;;;;;;-142.75;99.48;76753.38;5068228;28;20030;-66
2023/06/05 08:59:53;;;;;;;3.72;2.33;;;;;;;-142.75;99.84;76747.47;5068632;28;20029;-66
2023/06/05 09:02:18;;;;;;;4.35;2.45;;;;;;;-142.75;97.87;76737.63;5068115;28;20760;-67
2023/06/05 09:04:43;;;;;;;4.53;2.17;;;;;;;-142.75;97.89;76723.84;5068276;28;20025;-67
2023/06/05 09:07:11;;;;;;;3.15;2.13;;;;;;;-142.75;99.15;76696.28;5068584;28;20488;-67
2023/06/05 09:09:37;;;;;;;3.75;2.42;;;;;;;-142.75;98.45;76702.19;5068347;28;20518;-67
2023/06/05 09:12:07;;;;;;;4.03;2.38;;;;;;;-142.75;98.17;76674.63;5067902;28;20025;-68
2023/06/05 09:14:33;;;;;;;4.45;2.38;;;;;;;-142.75;98.43;76710.06;5068462;28;20059;-67
2023/06/05 09:17:00;;;;;;;4.97;2.28;;;;;;;-142.75;98.90;76704.16;5067468;28;20054;-67
2023/06/05 09:19:35;;;;;;;6.60;2.50;;;;;;;-142.75;96.47;76680.53;5068064;28;20063;-68
2023/06/05 09:22:01;;;;;;;6.97;2.92;;;;;;;-142.75;96.25;76674.63;5062050;28;20013;-68
2023/06/05 09:24:29;;;;;;;4.13;2.40;;;;;;;-142.75;96.09;76684.47;5068111;28;20028;-67
2023/06/05 09:26:58;;;;;;;6.43;2.53;;;;;;;-142.75;95.03;76654.94;5068184;28;20030;-68
2023/06/05 09:29:37;;;;;;;4.22;2.20;;;;;;;-142.75;97.10;76652.97;5068041;28;20025;-69
2023/06/05 09:32:07;;;;;;;4.10;2.25;;;;;;;-142.75;95.60;76658.88;5067324;28;20108;-68
2023/06/05 09:34:35;;;;;;;6.15;2.50;;;;;;;-142.75;99.65;76635.25;5068237;28;20394;-68
2023/06/05 09:37:03;;;;;;;19.77;4.00;;;;;;;-142.75;96.07;76643.13;5068155;28;20024;-67
2023/06/05 09:39:29;;;;;;;6.90;2.47;;;;;;;-142.75;91.51;76615.56;5067887;28;20040;-67
2023/06/05 09:41:56;;;;;;;7.18;2.35;;;;;;;-142.75;90.57;76629.34;5066466;28;20021;-67
2023/06/05 09:44:22;;;;;;;4.57;2.55;;;;;;;-142.75;91.63;76637.22;5083229;28;20090;-67
2023/06/05 09:46:54;;;;;;;4.90;2.10;;;;;;;-142.75;92.21;76605.72;5067774;28;20047;-68
2023/06/05 09:49:24;;;;;;;4.53;2.05;;;;;;;-142.75;91.89;76595.88;5083103;28;20078;-67
2023/06/05 09:51:49;;;;;;;4.53;2.10;;;;;;;-142.75;92.51;76617.53;5067353;28;20028;-68
2023/06/05 09:54:16;;;;;;;6.68;2.45;;;;;;;-142.75;92.12;76588.00;5067619;28;20031;-67
2023/06/05 09:56:41;;;;;;;4.32;2.60;;;;;;;-142.75;96.62;76578.16;5067567;28;20443;-67
2023/06/05 09:59:09;;;;;;;3.78;2.22;;;;;;;-142.75;95.97;76556.50;5067137;28;20020;-67
2023/06/05 10:01:36;;;;;;;5.95;2.40;;;;;;;-142.75;94.42;76538.78;5066937;28;20025;-67
2023/06/05 10:04:05;;;;;;;3.55;2.20;;;;;;;-142.75;91.99;76507.31;5067200;28;20032;-68
2023/06/05 10:06:33;;;;;;;5.68;2.95;;;;;;;-142.75;88.70;76515.19;5067420;28;20036;-67
2023/06/05 10:09:00;;;;;;;5.35;2.70;;;;;;;-142.75;85.97;76564.38;5067224;28;20532;-67
2023/06/05 10:11:26;;;;;;;4.80;2.75;;;;;;;-142.75;86.37;76568.31;5066748;28;20032;-67
2023/06/05 10:13:53;;;;;;;5.50;3.05;;;;;;;-142.75;87.85;76574.22;5067373;28;20024;-68
2023/06/05 10:16:19;;;;;;;4.15;2.53;;;;;;;-142.75;88.40;76548.63;5067029;28;20111;-68
2023/06/05 10:18:48;;;;;;;5.00;2.58;;;;;;;-142.75;89.24;76519.13;5065715;28;20087;-68
2023/06/05 10:21:16;;;;;;;5.15;2.38;;;;;;;-142.75;87.46;76479.75;5067042;28;20040;-68
2023/06/05 10:23:44;;;;;;;4.95;3.10;;;;;;;-142.75;84.08;76499.44;5066793;28;20116;-67
2023/06/05 10:26:20;;;;;;;5.25;3.15;;;;;;;-142.75;86.89;76467.94;5067018;28;20044;-68
2023/06/05 10:28:45;;;;;;;;;;;;;;;-142.75;83.31;76471.88;5065571;28;20024;-68
2023/06/05 10:31:19;;;;;;;6.73;2.90;;;;;;;-142.75;83.31;76462.03;5064770;28;19924;-69
2023/06/05 10:34:03;;;;;;;5.38;3.10;;;;;;;-142.75;85.35;76501.41;5066061;28;20039;-67
2023/06/05 10:37:07;;;;;;;4.47;3.17;;;;;;;-142.75;84.04;76469.91;5064511;28;20103;-68
2023/06/05 10:39:34;;;;;;;4.82;2.80;;;;;;;-142.75;82.42;76456.13;5065571;28;20052;-69
2023/06/05 10:42:00;;;;;;;6.28;3.20;;;;;;;-142.75;83.80;76456.13;5065498;28;20021;-68
2023/06/05 10:44:41;;;;;;;4.80;3.17;;;;;;;-142.75;82.66;76448.25;5066410;28;20142;-69
2023/06/05 10:47:28;;;;;;;5.65;3.10;;;;;;;-142.75;82.66;76446.28;5064065;28;20031;-67
2023/06/05 10:50:15;;;;;;;5.40;3.22;;;;;;;-142.75;83.95;76424.63;5066720;28;20401;-70
2023/06/05 10:52:41;;;;;;;4.70;2.60;;;;;;;-142.75;82.73;76422.66;5081561;28;20101;-68
2023/06/05 10:55:07;;;;;;;4.70;2.67;;;;;;;-142.75;80.86;76416.75;5065984;28;20512;-68
2023/06/05 10:58:10;;;;;;;9.27;3.83;;;;;;;-142.75;79.37;76389.19;5065263;28;20028;-68
2023/06/05 11:00:37;;;;;;;6.68;3.78;;;;;;;-142.75;81.08;76377.38;5081482;28;20118;-69
2023/06/05 11:03:03;;;;;;;4.85;3.40;;;;;;;-142.75;78.91;76389.19;5065221;28;20032;-68
2023/06/05 11:05:29;;;;;;;4.93;3.15;;;;;;;-142.75;79.96;76340.00;5066291;28;20103;-69
2023/06/05 11:08:18;;;;;;;5.47;3.08;;;;;;;-142.75;80.42;76357.69;5082124;28;20527;-68
2023/06/05 11:11:16;;;;;;;5.80;3.80;;;;;;;-142.75;79.60;76373.44;5065852;28;20047;-69